createdAt,value
2023-05-15T00:00:59.758Z,11.88
2023-05-15T00:03:29.902Z,11.23
2023-05-15T00:05:59.600Z,12.75
2023-05-15T00:08:29.407Z,10.65
2023-05-15T00:11:01.989Z,10.57
2023-05-15T00:13:31.727Z,11.45
2023-05-15T00:16:01.121Z,11.63
2023-05-15T00:18:31.138Z,12.02
2023-05-15T00:21:00.895Z,12.35
2023-05-15T00:23:30.227Z,10.98
2023-05-15T00:25:59.641Z,11.38
2023-05-15T00:28:29.022Z,12.05
2023-05-15T00:30:58.860Z,11.05
2023-05-15T00:33:28.588Z,11.85
2023-05-15T00:35:57.983Z,12.45
2023-05-15T00:38:27.440Z,10.38
2023-05-15T00:40:57.260Z,11.65
2023-05-15T00:43:28.690Z,11.85
2023-05-15T00:45:58.662Z,11.98
2023-05-15T00:48:29.096Z,11.80
2023-05-15T00:51:00.814Z,11.90
2023-05-15T00:53:30.691Z,11.35
2023-05-15T00:56:01.064Z,11.98
2023-05-15T00:58:30.885Z,12.43
2023-05-15T01:01:00.396Z,11.80
2023-05-15T01:03:30.051Z,12.23
2023-05-15T01:05:59.604Z,12.20
2023-05-15T01:08:35.576Z,11.23
2023-05-15T01:11:05.781Z,11.65
2023-05-15T01:13:35.190Z,12.23
2023-05-15T01:16:04.619Z,11.25
2023-05-15T01:18:34.950Z,12.18
2023-05-15T01:21:04.463Z,12.13
2023-05-15T01:23:45.286Z,11.18
2023-05-15T01:26:29.946Z,11.95
2023-05-15T01:29:03.143Z,10.52
2023-05-15T01:31:34.641Z,11.57
2023-05-15T01:34:06.338Z,10.73
2023-05-15T01:36:40.589Z,10.73
2023-05-15T01:39:10.893Z,12.10
2023-05-15T01:41:54.465Z,12.32
2023-05-15T01:44:38.812Z,11.98
2023-05-15T01:47:10.279Z,11.82
2023-05-15T01:49:40.705Z,12.03
2023-05-15T01:52:13.702Z,12.50
2023-05-15T01:54:44.987Z,11.35
2023-05-15T01:57:15.506Z,12.55
2023-05-15T01:59:45.387Z,12.82
2023-05-15T02:02:15.341Z,12.18
2023-05-15T02:04:47.627Z,12.90
2023-05-15T02:07:17.802Z,11.50
2023-05-15T02:09:47.463Z,11.93
2023-05-15T02:12:18.120Z,11.90
2023-05-15T02:14:48.141Z,10.80
2023-05-15T02:17:18.006Z,11.25
2023-05-15T02:19:47.391Z,11.65
2023-05-15T02:22:16.734Z,11.45
2023-05-15T02:24:46.168Z,10.75
2023-05-15T02:27:30.002Z,9.75
2023-05-15T02:30:11.688Z,11.73
2023-05-15T02:32:45.294Z,12.07
2023-05-15T02:35:24.774Z,11.68
2023-05-15T02:37:56.947Z,11.60
2023-05-15T02:40:28.468Z,11.43
2023-05-15T02:42:57.921Z,11.85
2023-05-15T02:45:27.671Z,11.00
2023-05-15T02:47:57.330Z,12.15
2023-05-15T02:50:28.448Z,12.80
2023-05-15T02:53:10.404Z,11.38
2023-05-15T02:55:41.140Z,11.20
2023-05-15T02:58:10.900Z,12.25
2023-05-15T03:00:40.343Z,11.50
2023-05-15T03:03:09.813Z,13.43
2023-05-15T03:05:39.263Z,11.93
2023-05-15T03:08:09.068Z,11.77
2023-05-15T03:10:38.478Z,12.57
2023-05-15T03:13:07.845Z,11.23
2023-05-15T03:15:37.348Z,12.63
2023-05-15T03:18:06.848Z,12.50
2023-05-15T03:20:36.346Z,11.90
2023-05-15T03:23:05.751Z,12.02
2023-05-15T03:25:35.199Z,13.35
2023-05-15T03:28:04.656Z,13.35
2023-05-15T03:30:34.063Z,12.38
2023-05-15T03:33:04.124Z,13.27
2023-05-15T03:35:33.780Z,13.77
2023-05-15T03:38:03.356Z,13.98
2023-05-15T03:40:32.758Z,14.68
2023-05-15T03:43:02.146Z,16.17
2023-05-15T03:45:31.496Z,16.70
2023-05-15T03:48:00.965Z,17.38
2023-05-15T03:50:30.486Z,14.73
2023-05-15T03:53:02.085Z,16.40
2023-05-15T03:55:31.488Z,17.83
2023-05-15T03:58:01.501Z,17.27
2023-05-15T04:00:30.916Z,18.60
2023-05-15T04:03:00.449Z,17.67
2023-05-15T04:05:29.955Z,19.60
2023-05-15T04:07:59.378Z,18.45
2023-05-15T04:10:29.529Z,19.70
2023-05-15T04:12:58.889Z,20.67
2023-05-15T04:15:28.886Z,20.45
2023-05-15T04:17:58.459Z,22.98
2023-05-15T04:20:28.110Z,20.73
2023-05-15T04:22:57.517Z,18.73
2023-05-15T04:25:27.509Z,20.23
2023-05-15T04:27:57.110Z,19.13
2023-05-15T04:30:26.972Z,19.58
2023-05-15T04:32:56.895Z,20.45
2023-05-15T04:35:26.585Z,21.00
2023-05-15T04:37:56.116Z,19.35
2023-05-15T04:40:25.532Z,17.48
2023-05-15T04:42:54.948Z,20.15
2023-05-15T04:45:24.758Z,18.88
2023-05-15T04:47:54.542Z,17.63
2023-05-15T04:50:24.156Z,18.63
2023-05-15T04:52:54.344Z,18.30
2023-05-15T04:55:24.171Z,16.92
2023-05-15T04:57:53.761Z,16.98
2023-05-15T05:00:23.474Z,17.45
2023-05-15T05:02:53.077Z,19.05
2023-05-15T05:05:22.697Z,18.08
2023-05-15T05:07:52.326Z,18.77
2023-05-15T05:10:21.798Z,18.45
2023-05-15T05:12:51.187Z,16.30
2023-05-15T05:15:20.520Z,17.77
2023-05-15T05:17:49.950Z,17.00
2023-05-15T05:20:19.410Z,16.73
2023-05-15T05:22:48.960Z,17.15
2023-05-15T05:25:18.408Z,17.45
2023-05-15T05:27:47.805Z,15.98
2023-05-15T05:30:17.324Z,16.10
2023-05-15T05:32:46.709Z,15.65
2023-05-15T05:35:16.497Z,16.92
2023-05-15T05:37:45.870Z,15.43
2023-05-15T05:40:15.479Z,16.25
2023-05-15T05:42:44.919Z,15.90
2023-05-15T05:45:14.417Z,15.70
2023-05-15T05:47:43.940Z,17.85
2023-05-15T05:50:13.856Z,17.38
2023-05-15T05:52:43.310Z,15.73
2023-05-15T05:55:13.055Z,16.63
2023-05-15T05:57:42.527Z,15.60
2023-05-15T06:00:12.976Z,16.88
2023-05-15T06:02:43.062Z,16.00
2023-05-15T06:05:13.233Z,15.07
2023-05-15T06:07:43.296Z,15.55
2023-05-15T06:10:14.021Z,16.77
2023-05-15T06:12:44.008Z,15.63
2023-05-15T06:15:13.887Z,15.57
2023-05-15T06:17:43.290Z,14.52
2023-05-15T06:20:12.881Z,15.77
2023-05-15T06:22:42.538Z,13.70
2023-05-15T06:25:14.406Z,15.82
2023-05-15T06:27:44.323Z,15.45
2023-05-15T06:30:14.218Z,16.10
2023-05-15T06:32:44.396Z,15.98
2023-05-15T06:35:13.899Z,16.15
2023-05-15T06:37:43.366Z,16.73
2023-05-15T06:40:12.920Z,19.10
2023-05-15T06:42:42.385Z,19.25
2023-05-15T06:45:12.262Z,19.95
2023-05-15T06:47:41.682Z,17.85
2023-05-15T06:50:11.565Z,19.50
2023-05-15T06:52:40.994Z,19.38
2023-05-15T06:55:10.582Z,21.88
2023-05-15T06:57:39.986Z,19.73
2023-05-15T07:00:10.156Z,18.63
2023-05-15T07:02:39.626Z,20.45
2023-05-15T07:05:10.482Z,19.48
2023-05-15T07:07:40.022Z,19.48
2023-05-15T07:10:09.734Z,19.02
2023-05-15T07:12:39.094Z,19.23
2023-05-15T07:15:08.660Z,18.77
2023-05-15T07:17:38.183Z,18.95
2023-05-15T07:20:08.707Z,20.27
2023-05-15T07:22:44.372Z,18.65
2023-05-15T07:25:17.695Z,18.23
2023-05-15T07:27:47.080Z,17.08
2023-05-15T07:30:16.791Z,16.88
2023-05-15T07:32:46.250Z,17.38
2023-05-15T07:35:15.769Z,17.75
2023-05-15T07:37:46.543Z,17.00
2023-05-15T07:40:16.012Z,15.27
2023-05-15T07:42:47.209Z,15.82
2023-05-15T07:45:16.750Z,16.33
2023-05-15T07:47:49.801Z,16.35
2023-05-15T07:50:19.628Z,16.30
2023-05-15T07:52:49.197Z,16.20
2023-05-15T07:55:18.612Z,15.15
2023-05-15T07:57:53.466Z,16.33
2023-05-15T08:00:23.554Z,14.98
2023-05-15T08:02:53.060Z,14.73
2023-05-15T08:05:22.653Z,15.98
2023-05-15T08:07:52.127Z,16.27
2023-05-15T08:10:21.512Z,15.95
2023-05-15T08:12:51.202Z,16.05
2023-05-15T08:15:20.689Z,13.73
2023-05-15T08:17:50.115Z,16.30
2023-05-15T08:20:19.602Z,14.98
2023-05-15T08:22:49.067Z,15.10
2023-05-15T08:25:18.441Z,14.13
2023-05-15T08:27:47.911Z,15.02
2023-05-15T08:30:17.371Z,17.17
2023-05-15T08:32:47.545Z,15.15
2023-05-15T08:35:17.011Z,16.52
2023-05-15T08:37:46.524Z,17.30
2023-05-15T08:40:16.038Z,16.40
2023-05-15T08:42:50.843Z,16.52
2023-05-15T08:45:20.321Z,16.30
2023-05-15T08:47:49.984Z,16.35
2023-05-15T08:50:20.006Z,16.23
2023-05-15T08:52:51.586Z,17.00
2023-05-15T08:55:21.756Z,19.48
2023-05-15T08:57:51.744Z,19.27
2023-05-15T09:00:22.262Z,18.92
2023-05-15T09:02:51.669Z,16.65
2023-05-15T09:05:21.067Z,18.33
2023-05-15T09:07:50.750Z,15.15
2023-05-15T09:10:20.238Z,16.63
2023-05-15T09:12:49.666Z,16.15
2023-05-15T09:15:22.575Z,15.73
2023-05-15T09:17:53.146Z,17.95
2023-05-15T09:20:39.789Z,17.08
2023-05-15T09:23:24.756Z,15.07
2023-05-15T09:25:56.469Z,17.38
2023-05-15T09:28:33.530Z,14.48
2023-05-15T09:31:04.439Z,14.15
2023-05-15T09:33:44.236Z,13.55
2023-05-15T09:36:13.668Z,13.57
2023-05-15T09:38:48.439Z,14.35
2023-05-15T09:41:17.985Z,12.45
2023-05-15T09:43:47.357Z,11.65
2023-05-15T09:46:17.658Z,12.30
2023-05-15T09:48:47.153Z,12.27
2023-05-15T09:51:20.742Z,12.20
2023-05-15T09:53:54.591Z,10.98
2023-05-15T09:56:24.737Z,11.80
2023-05-15T09:59:01.117Z,9.65
2023-05-15T10:01:30.994Z,10.70
2023-05-15T10:04:01.606Z,10.77
2023-05-15T10:06:37.648Z,11.02
2023-05-15T10:09:07.306Z,12.45
2023-05-15T10:11:41.238Z,13.27
2023-05-15T10:14:11.790Z,13.50
2023-05-15T10:16:42.129Z,13.00
2023-05-15T10:19:13.388Z,12.70
2023-05-15T10:21:43.968Z,13.50
2023-05-15T10:24:14.409Z,14.02
2023-05-15T10:26:44.850Z,14.18
2023-05-15T10:29:15.878Z,14.07
2023-05-15T10:31:45.474Z,12.52
2023-05-15T10:34:15.996Z,15.18
2023-05-15T10:36:45.714Z,13.40
2023-05-15T10:39:15.674Z,13.18
2023-05-15T10:41:45.692Z,12.55
2023-05-15T10:44:17.408Z,12.85
2023-05-15T10:46:47.235Z,14.73
2023-05-15T10:49:16.783Z,14.88
2023-05-15T10:51:46.604Z,17.55
2023-05-15T10:54:16.091Z,16.30
2023-05-15T10:56:45.408Z,16.52
2023-05-15T10:59:14.845Z,15.10
2023-05-15T11:01:44.328Z,15.18
2023-05-15T11:04:16.926Z,14.90
2023-05-15T11:06:47.250Z,14.43
2023-05-15T11:09:27.482Z,14.25
2023-05-15T11:11:58.002Z,13.35
2023-05-15T11:14:28.580Z,13.38
2023-05-15T11:16:58.318Z,11.23
2023-05-15T11:19:37.380Z,12.90
2023-05-15T11:22:06.864Z,11.52
2023-05-15T11:24:55.016Z,10.32
2023-05-15T11:27:27.177Z,10.15
2023-05-15T11:30:13.763Z,12.20
2023-05-15T11:33:03.928Z,12.95
2023-05-15T11:35:33.327Z,15.35
2023-05-15T11:38:05.336Z,14.23
2023-05-15T11:40:36.226Z,14.73
2023-05-15T11:43:08.930Z,13.40
2023-05-15T11:45:39.808Z,14.00
2023-05-15T11:48:10.332Z,13.70
2023-05-15T11:50:39.752Z,15.30
2023-05-15T11:53:09.953Z,13.95
2023-05-15T11:55:40.423Z,16.02
2023-05-15T11:58:14.277Z,14.07
2023-05-15T12:00:44.495Z,14.07
2023-05-15T12:03:14.833Z,14.23
2023-05-15T12:05:57.337Z,13.90
2023-05-15T12:08:28.227Z,15.00
2023-05-15T12:11:01.047Z,15.40
2023-05-15T12:13:30.704Z,16.10
2023-05-15T12:16:00.230Z,14.95
2023-05-15T12:18:29.772Z,14.98
2023-05-15T12:20:59.194Z,15.65
2023-05-15T12:23:29.199Z,15.93
2023-05-15T12:26:03.728Z,14.85
2023-05-15T12:28:34.349Z,16.00
2023-05-15T12:31:04.267Z,15.27
2023-05-15T12:33:33.771Z,14.93
2023-05-15T12:36:03.197Z,14.55
2023-05-15T12:38:34.374Z,16.35
2023-05-15T12:41:03.784Z,14.23
2023-05-15T12:43:34.130Z,14.40
2023-05-15T12:46:03.522Z,14.82
2023-05-15T12:48:33.701Z,14.32
2023-05-15T12:51:09.995Z,15.18
2023-05-15T12:53:40.172Z,15.80
2023-05-15T12:56:10.194Z,15.65
2023-05-15T12:58:39.817Z,14.80
2023-05-15T13:01:09.263Z,15.48
2023-05-15T13:03:39.431Z,15.30
2023-05-15T13:06:09.943Z,16.60
2023-05-15T13:08:47.105Z,16.77
2023-05-15T13:11:18.502Z,15.90
2023-05-15T13:13:51.657Z,16.85
2023-05-15T13:16:25.362Z,17.13
2023-05-15T13:18:55.284Z,16.30
2023-05-15T13:21:24.776Z,16.30
2023-05-15T13:23:54.590Z,16.52
2023-05-15T13:26:24.011Z,16.67
2023-05-15T13:28:53.379Z,17.75
2023-05-15T13:31:22.865Z,17.52
2023-05-15T13:33:52.288Z,17.15
2023-05-15T13:36:21.682Z,17.83
2023-05-15T13:38:51.068Z,16.77
2023-05-15T13:41:21.285Z,18.25
2023-05-15T13:43:51.670Z,18.08
2023-05-15T13:46:21.113Z,18.58
2023-05-15T13:48:50.877Z,17.77
2023-05-15T13:51:20.654Z,16.80
2023-05-15T13:53:50.096Z,15.57
2023-05-15T13:56:19.605Z,16.90
2023-05-15T13:58:49.066Z,16.08
2023-05-15T14:01:18.554Z,14.50
2023-05-15T14:03:48.178Z,15.55
2023-05-15T14:06:17.589Z,14.90
2023-05-15T14:08:47.126Z,14.88
2023-05-15T14:11:16.653Z,14.05
2023-05-15T14:13:47.483Z,15.73
2023-05-15T14:16:17.006Z,15.77
2023-05-15T14:18:46.678Z,14.98
2023-05-15T14:21:16.140Z,15.45
2023-05-15T14:23:45.522Z,16.17
2023-05-15T14:26:14.874Z,17.13
2023-05-15T14:28:44.366Z,17.08
2023-05-15T14:31:13.872Z,18.50
2023-05-15T14:33:43.846Z,17.15
2023-05-15T14:36:13.258Z,17.10
2023-05-15T14:38:45.620Z,16.80
2023-05-15T14:41:15.012Z,16.92
2023-05-15T14:43:44.365Z,17.33
2023-05-15T14:46:13.971Z,15.38
2023-05-15T14:48:43.506Z,15.90
2023-05-15T14:51:14.258Z,15.45
2023-05-15T14:53:43.693Z,17.63
2023-05-15T14:56:13.083Z,17.15
2023-05-15T14:58:42.473Z,16.45
2023-05-15T15:01:11.961Z,14.60
2023-05-15T15:03:42.814Z,17.23
2023-05-15T15:06:12.242Z,15.02
2023-05-15T15:08:41.966Z,14.63
2023-05-15T15:11:11.436Z,14.13
2023-05-15T15:13:40.890Z,12.10
2023-05-15T15:16:10.360Z,10.73
2023-05-15T15:18:39.727Z,10.50
2023-05-15T15:21:09.408Z,10.80
2023-05-15T15:23:38.958Z,9.45
2023-05-15T15:26:08.387Z,9.93
2023-05-15T15:28:37.772Z,7.50
2023-05-15T15:31:07.522Z,7.55
2023-05-15T15:33:37.664Z,7.88
2023-05-15T15:36:07.166Z,7.90
2023-05-15T15:38:36.670Z,7.40
2023-05-15T15:41:07.730Z,7.75
2023-05-15T15:43:37.282Z,7.78
2023-05-15T15:46:06.811Z,8.30
2023-05-15T15:48:36.236Z,8.13
2023-05-15T15:51:05.669Z,8.15
2023-05-15T15:53:35.168Z,8.93
2023-05-15T15:56:04.615Z,8.75
2023-05-15T15:58:34.124Z,7.43
2023-05-15T16:01:03.599Z,8.27
2023-05-15T16:03:33.670Z,7.47
2023-05-15T16:06:03.377Z,6.50
2023-05-15T16:08:32.865Z,7.03
2023-05-15T16:11:02.333Z,6.53
2023-05-15T16:13:31.911Z,5.53
2023-05-15T16:16:01.331Z,5.80
2023-05-15T16:18:30.764Z,6.00
2023-05-15T16:21:00.151Z,5.55
2023-05-15T16:23:29.548Z,5.75
2023-05-15T16:25:59.151Z,5.18
2023-05-15T16:28:28.529Z,5.93
2023-05-15T16:30:57.934Z,4.72
2023-05-15T16:33:27.372Z,5.20
2023-05-15T16:35:56.861Z,5.15
2023-05-15T16:38:26.675Z,5.43
2023-05-15T16:40:56.128Z,4.60
2023-05-15T16:43:25.671Z,4.40
2023-05-15T16:45:55.091Z,4.90
2023-05-15T16:48:26.410Z,4.40
2023-05-15T16:50:55.928Z,4.22
2023-05-15T16:53:25.551Z,4.88
2023-05-15T16:55:55.303Z,4.78
2023-05-15T16:58:24.697Z,4.38
2023-05-15T17:00:54.096Z,3.92
2023-05-15T17:03:23.792Z,3.83
2023-05-15T17:05:53.368Z,3.45
2023-05-15T17:08:22.757Z,3.67
2023-05-15T17:10:52.225Z,3.17
2023-05-15T17:13:21.935Z,3.60
2023-05-15T17:15:51.405Z,3.70
2023-05-15T17:18:20.812Z,4.03
2023-05-15T17:20:50.206Z,3.10
2023-05-15T17:23:21.686Z,3.40
2023-05-15T17:25:52.375Z,3.10
2023-05-15T17:28:21.811Z,3.42
2023-05-15T17:30:51.234Z,2.53
2023-05-15T17:33:20.695Z,3.08
2023-05-15T17:35:50.428Z,2.60
2023-05-15T17:38:19.814Z,2.78
2023-05-15T17:40:49.267Z,3.00
2023-05-15T17:43:18.706Z,3.10
2023-05-15T17:45:48.227Z,2.47
2023-05-15T17:48:17.702Z,3.28
2023-05-15T17:50:47.103Z,2.80
2023-05-15T17:53:16.737Z,3.78
2023-05-15T17:55:46.555Z,3.10
2023-05-15T17:58:16.100Z,2.88
2023-05-15T18:00:46.182Z,3.28
2023-05-15T18:03:15.737Z,3.50
2023-05-15T18:05:45.115Z,3.67
2023-05-15T18:08:14.604Z,3.15
2023-05-15T18:10:44.011Z,3.38
2023-05-15T18:13:16.538Z,4.03
2023-05-15T18:15:46.035Z,3.33
2023-05-15T18:18:16.648Z,3.13
2023-05-15T18:20:46.129Z,3.63
2023-05-15T18:23:16.879Z,3.60
2023-05-15T18:25:49.465Z,3.53
2023-05-15T18:28:18.857Z,3.55
2023-05-15T18:30:48.730Z,3.55
2023-05-15T18:33:18.330Z,4.38
2023-05-15T18:35:47.714Z,4.20
2023-05-15T18:38:17.160Z,3.50
2023-05-15T18:40:49.088Z,4.07
2023-05-15T18:43:18.462Z,3.67
2023-05-15T18:45:48.520Z,3.35
2023-05-15T18:48:17.991Z,3.10
2023-05-15T18:50:47.379Z,4.10
2023-05-15T18:53:16.764Z,3.90
2023-05-15T18:55:48.793Z,3.35
2023-05-15T18:58:18.205Z,3.97
2023-05-15T19:00:47.608Z,4.20
2023-05-15T19:03:17.201Z,3.22
2023-05-15T19:05:46.686Z,3.78
2023-05-15T19:08:18.966Z,4.20
2023-05-15T19:13:17.844Z,4.07
2023-05-15T19:15:56.677Z,4.22
2023-05-15T19:18:26.133Z,4.03
2023-05-15T19:20:56.880Z,4.63
2023-05-15T19:23:26.914Z,4.32
2023-05-15T19:25:56.311Z,4.00
2023-05-15T19:28:25.707Z,4.28
2023-05-15T19:30:55.078Z,4.47
2023-05-15T19:33:24.718Z,4.10
2023-05-15T19:35:54.180Z,3.65
2023-05-15T19:38:23.572Z,4.40
2023-05-15T19:40:53.144Z,4.30
2023-05-15T19:43:22.502Z,3.47
2023-05-15T19:45:51.962Z,4.07
2023-05-15T19:48:21.458Z,3.17
2023-05-15T19:50:51.204Z,3.28
2023-05-15T19:53:20.644Z,2.95
2023-05-15T19:55:50.073Z,3.08
2023-05-15T19:58:22.144Z,2.63
2023-05-15T20:00:52.865Z,2.95
2023-05-15T20:03:22.396Z,2.75
2023-05-15T20:05:52.156Z,3.60
2023-05-15T20:08:21.512Z,2.70
2023-05-15T20:10:53.335Z,2.50
2023-05-15T20:13:22.767Z,3.40
2023-05-15T20:16:00.867Z,2.78
2023-05-15T20:18:34.423Z,2.75
2023-05-15T20:21:04.326Z,2.47
2023-05-15T20:23:33.834Z,2.80
2023-05-15T20:26:03.211Z,3.03
2023-05-15T20:28:32.665Z,2.85
2023-05-15T20:31:02.785Z,2.63
2023-05-15T20:33:32.244Z,3.00
2023-05-15T20:36:02.458Z,2.55
2023-05-15T20:38:34.000Z,2.58
2023-05-15T20:41:04.081Z,2.83
2023-05-15T20:43:33.469Z,3.60
2023-05-15T20:46:02.892Z,2.58
2023-05-15T20:48:32.290Z,2.67
2023-05-15T20:51:01.685Z,2.30
2023-05-15T20:53:31.380Z,2.47
2023-05-15T20:56:00.789Z,2.63
2023-05-15T20:58:30.194Z,2.38
2023-05-15T21:01:01.278Z,2.75
2023-05-15T21:03:31.675Z,2.58
2023-05-15T21:06:02.448Z,3.45
2023-05-15T21:08:32.031Z,2.40
2023-05-15T21:11:01.430Z,2.30
2023-05-15T21:13:30.971Z,2.42
2023-05-15T21:16:00.333Z,1.95
2023-05-15T21:18:29.792Z,2.10
2023-05-15T21:20:59.216Z,2.40
2023-05-15T21:23:28.649Z,1.90
2023-05-15T21:25:58.126Z,2.53
2023-05-15T21:28:27.788Z,1.65
2023-05-15T21:30:57.161Z,2.42
2023-05-15T21:33:26.746Z,1.83
2023-05-15T21:35:56.219Z,2.70
2023-05-15T21:38:25.622Z,2.05
2023-05-15T21:40:55.038Z,1.98
2023-05-15T21:43:24.373Z,2.13
2023-05-15T21:45:53.733Z,2.08
2023-05-15T21:48:23.253Z,2.35
2023-05-15T21:50:52.842Z,1.73
2023-05-15T21:53:22.214Z,1.48
2023-05-15T21:55:52.265Z,1.70
2023-05-15T21:58:21.824Z,1.55
2023-05-15T22:00:51.767Z,1.42
2023-05-15T22:03:24.168Z,1.67
2023-05-15T22:05:54.144Z,1.50
2023-05-15T22:08:23.603Z,2.17
2023-05-15T22:10:52.997Z,1.48
2023-05-15T22:13:22.401Z,1.73
2023-05-15T22:15:51.852Z,1.40
2023-05-15T22:18:21.448Z,1.70
2023-05-15T22:20:52.546Z,1.65
2023-05-15T22:23:21.927Z,1.70
2023-05-15T22:25:51.861Z,1.95
2023-05-15T22:28:21.401Z,1.55
2023-05-15T22:30:50.786Z,1.90
2023-05-15T22:33:24.346Z,1.48
2023-05-15T22:35:54.361Z,2.35
2023-05-15T22:38:23.860Z,1.73
2023-05-15T22:40:53.794Z,1.77
2023-05-15T22:43:23.426Z,2.00
2023-05-15T22:45:52.879Z,2.05
2023-05-15T22:48:23.228Z,1.50
2023-05-15T22:50:52.661Z,1.55
2023-05-15T22:53:22.113Z,3.08
2023-05-15T22:55:51.895Z,1.50
2023-05-15T22:58:21.604Z,1.70
2023-05-15T23:00:51.140Z,2.10
2023-05-15T23:03:20.819Z,2.33
2023-05-15T23:05:50.472Z,2.25
2023-05-15T23:08:19.890Z,2.10
2023-05-15T23:10:49.311Z,2.60
2023-05-15T23:13:18.728Z,2.47
2023-05-15T23:15:48.260Z,1.50
2023-05-15T23:18:17.866Z,1.83
2023-05-15T23:20:47.221Z,2.70
2023-05-15T23:23:16.673Z,1.80
2023-05-15T23:25:46.071Z,1.77
2023-05-15T23:28:15.572Z,1.88
2023-05-15T23:30:45.049Z,2.05
2023-05-15T23:33:14.520Z,2.30
2023-05-15T23:35:43.944Z,1.88
2023-05-15T23:38:13.448Z,2.13
2023-05-15T23:40:42.958Z,2.70
2023-05-15T23:43:12.359Z,2.30
2023-05-15T23:45:41.955Z,2.20
2023-05-15T23:48:11.929Z,2.25
2023-05-15T23:50:41.531Z,2.67
2023-05-15T23:53:11.189Z,3.42
2023-05-15T23:55:40.644Z,2.13
2023-05-15T23:58:10.086Z,2.35
